sensor_id;sensor_type;location;lat;lon;timestamp;P1;durP1;ratioP1;P2;durP2;ratioP2
48805;SDS011;34625;47.176;27.548;2024-03-29T00:00:57;2.53;;;1.60;;
48805;SDS011;34625;47.176;27.548;2024-03-29T00:03:25;2.80;;;1.77;;
48805;SDS011;34625;47.176;27.548;2024-03-29T00:05:51;3.10;;;2.08;;
48805;SDS011;34625;47.176;27.548;2024-03-29T00:08:18;3.90;;;1.83;;
48805;SDS011;34625;47.176;27.548;2024-03-29T00:10:46;4.10;;;2.22;;
48805;SDS011;34625;47.176;27.548;2024-03-29T00:13:13;4.90;;;2.05;;
48805;SDS011;34625;47.176;27.548;2024-03-29T00:15:39;4.07;;;1.88;;
48805;SDS011;34625;47.176;27.548;2024-03-29T00:18:06;3.55;;;2.05;;
48805;SDS011;34625;47.176;27.548;2024-03-29T00:20:32;2.92;;;2.13;;
48805;SDS011;34625;47.176;27.548;2024-03-29T00:22:59;3.28;;;2.22;;
48805;SDS011;34625;47.176;27.548;2024-03-29T00:25:25;2.70;;;1.70;;
48805;SDS011;34625;47.176;27.548;2024-03-29T00:27:52;2.83;;;1.85;;
48805;SDS011;34625;47.176;27.548;2024-03-29T00:30:19;3.80;;;1.77;;
48805;SDS011;34625;47.176;27.548;2024-03-29T00:32:45;3.10;;;2.00;;
48805;SDS011;34625;47.176;27.548;2024-03-29T00:35:12;3.83;;;1.88;;
48805;SDS011;34625;47.176;27.548;2024-03-29T00:37:39;1.65;;;1.55;;
48805;SDS011;34625;47.176;27.548;2024-03-29T00:40:06;5.07;;;1.92;;
48805;SDS011;34625;47.176;27.548;2024-03-29T00:42:33;5.82;;;2.80;;
48805;SDS011;34625;47.176;27.548;2024-03-29T00:44:59;3.53;;;1.98;;
48805;SDS011;34625;47.176;27.548;2024-03-29T00:47:26;2.38;;;1.60;;
48805;SDS011;34625;47.176;27.548;2024-03-29T00:49:52;3.55;;;1.50;;
48805;SDS011;34625;47.176;27.548;2024-03-29T00:52:19;2.83;;;1.80;;
48805;SDS011;34625;47.176;27.548;2024-03-29T00:54:45;1.73;;;1.50;;
48805;SDS011;34625;47.176;27.548;2024-03-29T00:57:11;1.80;;;1.42;;
48805;SDS011;34625;47.176;27.548;2024-03-29T00:59:39;1.80;;;1.00;;
48805;SDS011;34625;47.176;27.548;2024-03-29T01:02:09;2.28;;;1.20;;
48805;SDS011;34625;47.176;27.548;2024-03-29T01:04:35;3.25;;;1.17;;
48805;SDS011;34625;47.176;27.548;2024-03-29T01:07:05;1.17;;;1.10;;
48805;SDS011;34625;47.176;27.548;2024-03-29T01:09:31;2.35;;;0.90;;
48805;SDS011;34625;47.176;27.548;2024-03-29T01:11:57;1.55;;;1.33;;
48805;SDS011;34625;47.176;27.548;2024-03-29T01:14:24;1.67;;;1.17;;
48805;SDS011;34625;47.176;27.548;2024-03-29T01:16:51;5.10;;;1.48;;
48805;SDS011;34625;47.176;27.548;2024-03-29T01:19:18;1.08;;;1.00;;
48805;SDS011;34625;47.176;27.548;2024-03-29T01:21:44;5.85;;;1.30;;
48805;SDS011;34625;47.176;27.548;2024-03-29T01:24:11;4.03;;;1.17;;
48805;SDS011;34625;47.176;27.548;2024-03-29T01:26:37;1.75;;;1.30;;
48805;SDS011;34625;47.176;27.548;2024-03-29T01:29:04;1.60;;;1.10;;
48805;SDS011;34625;47.176;27.548;2024-03-29T01:31:31;3.92;;;0.90;;
48805;SDS011;34625;47.176;27.548;2024-03-29T01:33:58;1.50;;;1.10;;
48805;SDS011;34625;47.176;27.548;2024-03-29T01:36:24;1.42;;;1.30;;
48805;SDS011;34625;47.176;27.548;2024-03-29T01:38:51;3.15;;;1.13;;
48805;SDS011;34625;47.176;27.548;2024-03-29T01:41:20;1.30;;;1.20;;
48805;SDS011;34625;47.176;27.548;2024-03-29T01:43:46;2.17;;;1.40;;
48805;SDS011;34625;47.176;27.548;2024-03-29T01:46:12;1.42;;;1.20;;
48805;SDS011;34625;47.176;27.548;2024-03-29T01:48:39;1.48;;;1.20;;
48805;SDS011;34625;47.176;27.548;2024-03-29T01:51:05;1.48;;;1.38;;
48805;SDS011;34625;47.176;27.548;2024-03-29T01:53:32;1.67;;;1.02;;
48805;SDS011;34625;47.176;27.548;2024-03-29T01:55:59;2.42;;;1.48;;
48805;SDS011;34625;47.176;27.548;2024-03-29T01:58:27;2.88;;;1.50;;
48805;SDS011;34625;47.176;27.548;2024-03-29T02:00:54;1.60;;;1.30;;
48805;SDS011;34625;47.176;27.548;2024-03-29T02:03:21;2.38;;;1.50;;
48805;SDS011;34625;47.176;27.548;2024-03-29T02:05:48;1.08;;;0.90;;
48805;SDS011;34625;47.176;27.548;2024-03-29T02:08:15;1.58;;;0.90;;
48805;SDS011;34625;47.176;27.548;2024-03-29T02:10:42;1.50;;;1.10;;
48805;SDS011;34625;47.176;27.548;2024-03-29T02:13:09;2.22;;;1.60;;
48805;SDS011;34625;47.176;27.548;2024-03-29T02:15:35;1.40;;;1.30;;
48805;SDS011;34625;47.176;27.548;2024-03-29T02:18:02;3.75;;;1.23;;
48805;SDS011;34625;47.176;27.548;2024-03-29T02:20:28;3.15;;;0.95;;
48805;SDS011;34625;47.176;27.548;2024-03-29T02:23:00;2.47;;;1.33;;
48805;SDS011;34625;47.176;27.548;2024-03-29T02:25:28;2.97;;;1.10;;
48805;SDS011;34625;47.176;27.548;2024-03-29T02:27:55;1.27;;;1.00;;
48805;SDS011;34625;47.176;27.548;2024-03-29T02:30:21;1.33;;;1.00;;
48805;SDS011;34625;47.176;27.548;2024-03-29T02:32:48;1.70;;;1.30;;
48805;SDS011;34625;47.176;27.548;2024-03-29T02:35:14;1.20;;;1.05;;
48805;SDS011;34625;47.176;27.548;2024-03-29T02:37:41;1.17;;;1.05;;
48805;SDS011;34625;47.176;27.548;2024-03-29T02:40:07;4.45;;;0.98;;
48805;SDS011;34625;47.176;27.548;2024-03-29T02:42:34;3.60;;;1.20;;
48805;SDS011;34625;47.176;27.548;2024-03-29T02:45:02;1.33;;;1.13;;
48805;SDS011;34625;47.176;27.548;2024-03-29T02:47:29;1.38;;;1.05;;
48805;SDS011;34625;47.176;27.548;2024-03-29T02:49:55;0.85;;;0.80;;
48805;SDS011;34625;47.176;27.548;2024-03-29T02:52:22;1.38;;;0.90;;
48805;SDS011;34625;47.176;27.548;2024-03-29T02:54:48;2.38;;;1.17;;
48805;SDS011;34625;47.176;27.548;2024-03-29T02:57:14;1.70;;;1.23;;
48805;SDS011;34625;47.176;27.548;2024-03-29T02:59:41;1.65;;;1.10;;
48805;SDS011;34625;47.176;27.548;2024-03-29T03:02:08;2.15;;;1.27;;
48805;SDS011;34625;47.176;27.548;2024-03-29T03:04:34;4.88;;;1.17;;
48805;SDS011;34625;47.176;27.548;2024-03-29T03:07:01;1.70;;;1.05;;
48805;SDS011;34625;47.176;27.548;2024-03-29T03:09:46;2.45;;;1.17;;
48805;SDS011;34625;47.176;27.548;2024-03-29T03:12:31;4.07;;;1.08;;
48805;SDS011;34625;47.176;27.548;2024-03-29T03:14:57;2.72;;;1.27;;
48805;SDS011;34625;47.176;27.548;2024-03-29T03:17:25;2.00;;;1.17;;
48805;SDS011;34625;47.176;27.548;2024-03-29T03:19:52;0.95;;;0.95;;
48805;SDS011;34625;47.176;27.548;2024-03-29T03:22:19;1.10;;;1.00;;
48805;SDS011;34625;47.176;27.548;2024-03-29T03:24:45;1.27;;;1.10;;
48805;SDS011;34625;47.176;27.548;2024-03-29T03:27:12;3.40;;;1.00;;
48805;SDS011;34625;47.176;27.548;2024-03-29T03:29:39;1.50;;;0.80;;
48805;SDS011;34625;47.176;27.548;2024-03-29T03:32:05;2.03;;;1.13;;
48805;SDS011;34625;47.176;27.548;2024-03-29T03:34:32;2.72;;;1.00;;
48805;SDS011;34625;47.176;27.548;2024-03-29T03:36:58;1.45;;;0.80;;
48805;SDS011;34625;47.176;27.548;2024-03-29T03:39:25;1.35;;;0.80;;
48805;SDS011;34625;47.176;27.548;2024-03-29T03:41:51;2.08;;;1.10;;
48805;SDS011;34625;47.176;27.548;2024-03-29T03:44:18;0.73;;;0.73;;
48805;SDS011;34625;47.176;27.548;2024-03-29T03:46:47;1.45;;;0.90;;
48805;SDS011;34625;47.176;27.548;2024-03-29T03:49:13;0.70;;;0.70;;
48805;SDS011;34625;47.176;27.548;2024-03-29T03:51:40;0.70;;;0.70;;
48805;SDS011;34625;47.176;27.548;2024-03-29T03:54:07;1.27;;;1.17;;
48805;SDS011;34625;47.176;27.548;2024-03-29T03:56:33;1.33;;;1.23;;
48805;SDS011;34625;47.176;27.548;2024-03-29T03:58:59;5.00;;;1.30;;
48805;SDS011;34625;47.176;27.548;2024-03-29T04:01:26;2.97;;;1.08;;
48805;SDS011;34625;47.176;27.548;2024-03-29T04:03:52;1.25;;;1.13;;
48805;SDS011;34625;47.176;27.548;2024-03-29T04:06:19;3.38;;;1.02;;
48805;SDS011;34625;47.176;27.548;2024-03-29T04:08:46;2.88;;;1.45;;
48805;SDS011;34625;47.176;27.548;2024-03-29T04:11:13;5.97;;;1.63;;
48805;SDS011;34625;47.176;27.548;2024-03-29T04:13:39;1.88;;;1.65;;
48805;SDS011;34625;47.176;27.548;2024-03-29T04:16:07;2.00;;;1.30;;
48805;SDS011;34625;47.176;27.548;2024-03-29T04:18:33;2.97;;;1.65;;
48805;SDS011;34625;47.176;27.548;2024-03-29T04:21:00;4.70;;;1.60;;
48805;SDS011;34625;47.176;27.548;2024-03-29T04:23:27;1.85;;;1.35;;
48805;SDS011;34625;47.176;27.548;2024-03-29T04:25:55;1.88;;;1.65;;
48805;SDS011;34625;47.176;27.548;2024-03-29T04:28:21;4.13;;;1.80;;
48805;SDS011;34625;47.176;27.548;2024-03-29T04:30:54;3.03;;;1.55;;
48805;SDS011;34625;47.176;27.548;2024-03-29T04:33:21;8.25;;;2.25;;
48805;SDS011;34625;47.176;27.548;2024-03-29T04:36:01;5.70;;;1.83;;
48805;SDS011;34625;47.176;27.548;2024-03-29T04:38:28;2.78;;;1.60;;
48805;SDS011;34625;47.176;27.548;2024-03-29T04:40:56;0.73;;;0.73;;
48805;SDS011;34625;47.176;27.548;2024-03-29T04:43:23;1.88;;;1.33;;
48805;SDS011;34625;47.176;27.548;2024-03-29T04:45:50;3.08;;;1.33;;
48805;SDS011;34625;47.176;27.548;2024-03-29T04:48:17;2.80;;;1.27;;
48805;SDS011;34625;47.176;27.548;2024-03-29T04:50:43;7.45;;;1.40;;
48805;SDS011;34625;47.176;27.548;2024-03-29T04:53:10;1.48;;;1.17;;
48805;SDS011;34625;47.176;27.548;2024-03-29T04:55:36;2.33;;;1.25;;
48805;SDS011;34625;47.176;27.548;2024-03-29T04:58:04;5.20;;;1.60;;
48805;SDS011;34625;47.176;27.548;2024-03-29T05:00:31;7.07;;;1.80;;
48805;SDS011;34625;47.176;27.548;2024-03-29T05:02:57;2.85;;;1.48;;
48805;SDS011;34625;47.176;27.548;2024-03-29T05:05:24;1.15;;;1.05;;
48805;SDS011;34625;47.176;27.548;2024-03-29T05:07:50;1.80;;;1.33;;
48805;SDS011;34625;47.176;27.548;2024-03-29T05:10:17;1.23;;;0.88;;
48805;SDS011;34625;47.176;27.548;2024-03-29T05:12:43;0.90;;;0.88;;
48805;SDS011;34625;47.176;27.548;2024-03-29T05:15:10;0.60;;;0.60;;
48805;SDS011;34625;47.176;27.548;2024-03-29T05:17:37;0.77;;;0.70;;
48805;SDS011;34625;47.176;27.548;2024-03-29T05:20:03;2.53;;;0.73;;
48805;SDS011;34625;47.176;27.548;2024-03-29T05:22:30;2.50;;;0.73;;
48805;SDS011;34625;47.176;27.548;2024-03-29T05:24:57;1.27;;;0.90;;
48805;SDS011;34625;47.176;27.548;2024-03-29T05:27:23;1.33;;;1.02;;
48805;SDS011;34625;47.176;27.548;2024-03-29T05:29:50;1.00;;;0.88;;
48805;SDS011;34625;47.176;27.548;2024-03-29T05:32:16;1.30;;;0.80;;
48805;SDS011;34625;47.176;27.548;2024-03-29T05:34:43;1.85;;;1.00;;
48805;SDS011;34625;47.176;27.548;2024-03-29T05:37:10;0.82;;;0.75;;
48805;SDS011;34625;47.176;27.548;2024-03-29T05:39:37;1.05;;;0.60;;
48805;SDS011;34625;47.176;27.548;2024-03-29T05:42:03;0.63;;;0.60;;
48805;SDS011;34625;47.176;27.548;2024-03-29T05:44:30;0.90;;;0.80;;
48805;SDS011;34625;47.176;27.548;2024-03-29T05:46:56;0.80;;;0.70;;
48805;SDS011;34625;47.176;27.548;2024-03-29T05:49:22;0.73;;;0.60;;
48805;SDS011;34625;47.176;27.548;2024-03-29T05:51:49;0.75;;;0.75;;
48805;SDS011;34625;47.176;27.548;2024-03-29T05:54:17;0.70;;;0.70;;
48805;SDS011;34625;47.176;27.548;2024-03-29T05:56:43;1.75;;;0.73;;
48805;SDS011;34625;47.176;27.548;2024-03-29T05:59:10;1.02;;;0.93;;
48805;SDS011;34625;47.176;27.548;2024-03-29T06:01:37;2.40;;;0.80;;
48805;SDS011;34625;47.176;27.548;2024-03-29T06:04:04;2.17;;;0.55;;
48805;SDS011;34625;47.176;27.548;2024-03-29T06:06:39;0.93;;;0.70;;
48805;SDS011;34625;47.176;27.548;2024-03-29T06:09:05;1.67;;;0.60;;
48805;SDS011;34625;47.176;27.548;2024-03-29T06:11:32;0.60;;;0.52;;
48805;SDS011;34625;47.176;27.548;2024-03-29T06:13:58;1.48;;;0.73;;
48805;SDS011;34625;47.176;27.548;2024-03-29T06:16:25;0.63;;;0.63;;
48805;SDS011;34625;47.176;27.548;2024-03-29T06:19:10;0.75;;;0.60;;
48805;SDS011;34625;47.176;27.548;2024-03-29T06:21:37;0.40;;;0.40;;
48805;SDS011;34625;47.176;27.548;2024-03-29T06:24:11;1.65;;;0.98;;
48805;SDS011;34625;47.176;27.548;2024-03-29T06:26:38;0.30;;;0.30;;
48805;SDS011;34625;47.176;27.548;2024-03-29T06:29:04;1.10;;;0.80;;
48805;SDS011;34625;47.176;27.548;2024-03-29T06:31:31;0.57;;;0.57;;
48805;SDS011;34625;47.176;27.548;2024-03-29T06:33:57;1.65;;;0.70;;
48805;SDS011;34625;47.176;27.548;2024-03-29T06:36:24;0.90;;;0.85;;
48805;SDS011;34625;47.176;27.548;2024-03-29T06:38:51;1.40;;;0.73;;
48805;SDS011;34625;47.176;27.548;2024-03-29T06:41:17;0.75;;;0.60;;
48805;SDS011;34625;47.176;27.548;2024-03-29T06:43:44;0.70;;;0.65;;
48805;SDS011;34625;47.176;27.548;2024-03-29T06:46:11;0.98;;;0.80;;
48805;SDS011;34625;47.176;27.548;2024-03-29T06:48:37;0.50;;;0.50;;
48805;SDS011;34625;47.176;27.548;2024-03-29T06:51:04;1.17;;;0.60;;
48805;SDS011;34625;47.176;27.548;2024-03-29T06:53:30;1.10;;;0.60;;
48805;SDS011;34625;47.176;27.548;2024-03-29T06:55:59;0.80;;;0.77;;
48805;SDS011;34625;47.176;27.548;2024-03-29T06:58:26;0.57;;;0.50;;
48805;SDS011;34625;47.176;27.548;2024-03-29T07:00:53;1.25;;;0.65;;
48805;SDS011;34625;47.176;27.548;2024-03-29T07:03:19;2.03;;;0.55;;
48805;SDS011;34625;47.176;27.548;2024-03-29T07:05:46;1.45;;;0.80;;
48805;SDS011;34625;47.176;27.548;2024-03-29T07:08:12;2.08;;;0.95;;
48805;SDS011;34625;47.176;27.548;2024-03-29T07:10:39;1.83;;;0.93;;
48805;SDS011;34625;47.176;27.548;2024-03-29T07:13:06;1.42;;;0.80;;
48805;SDS011;34625;47.176;27.548;2024-03-29T07:15:33;2.65;;;0.70;;
48805;SDS011;34625;47.176;27.548;2024-03-29T07:17:59;4.03;;;1.20;;
48805;SDS011;34625;47.176;27.548;2024-03-29T07:20:28;3.38;;;0.93;;
48805;SDS011;34625;47.176;27.548;2024-03-29T07:22:55;5.05;;;1.60;;
48805;SDS011;34625;47.176;27.548;2024-03-29T07:25:21;0.85;;;0.85;;
48805;SDS011;34625;47.176;27.548;2024-03-29T07:27:48;9.02;;;0.77;;
48805;SDS011;34625;47.176;27.548;2024-03-29T07:30:15;3.45;;;0.60;;
48805;SDS011;34625;47.176;27.548;2024-03-29T07:32:42;0.98;;;0.63;;
48805;SDS011;34625;47.176;27.548;2024-03-29T07:35:08;3.42;;;1.88;;
48805;SDS011;34625;47.176;27.548;2024-03-29T07:37:35;4.85;;;2.72;;
48805;SDS011;34625;47.176;27.548;2024-03-29T07:40:01;3.58;;;2.70;;
48805;SDS011;34625;47.176;27.548;2024-03-29T07:42:34;2.25;;;2.03;;
48805;SDS011;34625;47.176;27.548;2024-03-29T07:45:02;2.75;;;1.75;;
48805;SDS011;34625;47.176;27.548;2024-03-29T07:47:28;3.10;;;1.27;;
48805;SDS011;34625;47.176;27.548;2024-03-29T07:49:55;1.23;;;0.40;;
48805;SDS011;34625;47.176;27.548;2024-03-29T07:52:21;3.42;;;0.50;;
48805;SDS011;34625;47.176;27.548;2024-03-29T07:54:48;4.13;;;0.63;;
48805;SDS011;34625;47.176;27.548;2024-03-29T07:57:14;3.63;;;1.13;;
48805;SDS011;34625;47.176;27.548;2024-03-29T07:59:42;0.85;;;0.63;;
48805;SDS011;34625;47.176;27.548;2024-03-29T08:02:09;0.68;;;0.68;;
48805;SDS011;34625;47.176;27.548;2024-03-29T08:04:35;1.33;;;0.77;;
48805;SDS011;34625;47.176;27.548;2024-03-29T08:07:01;2.47;;;0.95;;
48805;SDS011;34625;47.176;27.548;2024-03-29T08:09:28;1.90;;;1.15;;
48805;SDS011;34625;47.176;27.548;2024-03-29T08:11:54;3.33;;;0.60;;
48805;SDS011;34625;47.176;27.548;2024-03-29T08:14:21;1.48;;;0.70;;
48805;SDS011;34625;47.176;27.548;2024-03-29T08:16:47;1.58;;;0.60;;
48805;SDS011;34625;47.176;27.548;2024-03-29T08:19:14;4.38;;;0.98;;
48805;SDS011;34625;47.176;27.548;2024-03-29T08:21:40;0.95;;;0.40;;
48805;SDS011;34625;47.176;27.548;2024-03-29T08:24:07;0.47;;;0.30;;
48805;SDS011;34625;47.176;27.548;2024-03-29T08:26:33;1.10;;;0.60;;
48805;SDS011;34625;47.176;27.548;2024-03-29T08:29:00;0.75;;;0.75;;
48805;SDS011;34625;47.176;27.548;2024-03-29T08:31:26;2.97;;;1.23;;
48805;SDS011;34625;47.176;27.548;2024-03-29T08:33:52;2.38;;;1.08;;
48805;SDS011;34625;47.176;27.548;2024-03-29T08:36:19;2.63;;;0.68;;
48805;SDS011;34625;47.176;27.548;2024-03-29T08:38:46;22.85;;;6.20;;
48805;SDS011;34625;47.176;27.548;2024-03-29T08:41:12;6.10;;;2.90;;
48805;SDS011;34625;47.176;27.548;2024-03-29T08:43:40;8.68;;;2.00;;
48805;SDS011;34625;47.176;27.548;2024-03-29T08:46:06;2.33;;;0.90;;
48805;SDS011;34625;47.176;27.548;2024-03-29T08:48:34;3.30;;;0.85;;
48805;SDS011;34625;47.176;27.548;2024-03-29T08:51:03;3.55;;;0.93;;
48805;SDS011;34625;47.176;27.548;2024-03-29T08:53:29;1.20;;;0.52;;
48805;SDS011;34625;47.176;27.548;2024-03-29T08:55:56;0.82;;;0.43;;
48805;SDS011;34625;47.176;27.548;2024-03-29T08:58:22;1.73;;;0.63;;
48805;SDS011;34625;47.176;27.548;2024-03-29T09:00:52;1.23;;;0.60;;
48805;SDS011;34625;47.176;27.548;2024-03-29T09:03:23;0.35;;;0.35;;
48805;SDS011;34625;47.176;27.548;2024-03-29T09:05:50;1.60;;;0.52;;
48805;SDS011;34625;47.176;27.548;2024-03-29T09:08:17;3.70;;;0.52;;
48805;SDS011;34625;47.176;27.548;2024-03-29T09:10:44;0.73;;;0.50;;
48805;SDS011;34625;47.176;27.548;2024-03-29T09:13:10;1.15;;;0.40;;
48805;SDS011;34625;47.176;27.548;2024-03-29T09:15:37;1.00;;;0.50;;
48805;SDS011;34625;47.176;27.548;2024-03-29T09:18:03;4.35;;;0.60;;
48805;SDS011;34625;47.176;27.548;2024-03-29T09:20:43;1.60;;;0.63;;
48805;SDS011;34625;47.176;27.548;2024-03-29T09:23:10;0.50;;;0.50;;
48805;SDS011;34625;47.176;27.548;2024-03-29T09:25:41;3.75;;;0.50;;
48805;SDS011;34625;47.176;27.548;2024-03-29T09:28:07;0.35;;;0.35;;
48805;SDS011;34625;47.176;27.548;2024-03-29T09:30:35;3.20;;;0.50;;
48805;SDS011;34625;47.176;27.548;2024-03-29T09:33:01;2.60;;;0.50;;
48805;SDS011;34625;47.176;27.548;2024-03-29T09:35:32;0.47;;;0.47;;
48805;SDS011;34625;47.176;27.548;2024-03-29T09:37:58;3.80;;;0.82;;
48805;SDS011;34625;47.176;27.548;2024-03-29T09:40:25;2.67;;;0.73;;
48805;SDS011;34625;47.176;27.548;2024-03-29T09:42:54;0.30;;;0.30;;
48805;SDS011;34625;47.176;27.548;2024-03-29T09:45:36;2.83;;;0.80;;
48805;SDS011;34625;47.176;27.548;2024-03-29T09:48:03;3.75;;;0.50;;
48805;SDS011;34625;47.176;27.548;2024-03-29T09:50:31;0.50;;;0.50;;
48805;SDS011;34625;47.176;27.548;2024-03-29T09:52:58;1.65;;;0.73;;
48805;SDS011;34625;47.176;27.548;2024-03-29T09:55:24;1.88;;;0.70;;
48805;SDS011;34625;47.176;27.548;2024-03-29T09:57:51;0.70;;;0.70;;
48805;SDS011;34625;47.176;27.548;2024-03-29T10:00:18;0.65;;;0.38;;
48805;SDS011;34625;47.176;27.548;2024-03-29T10:02:44;1.20;;;0.50;;
48805;SDS011;34625;47.176;27.548;2024-03-29T10:05:11;4.47;;;0.50;;
48805;SDS011;34625;47.176;27.548;2024-03-29T10:07:38;0.60;;;0.40;;
48805;SDS011;34625;47.176;27.548;2024-03-29T10:10:05;1.88;;;0.50;;
48805;SDS011;34625;47.176;27.548;2024-03-29T10:12:32;2.80;;;1.25;;
48805;SDS011;34625;47.176;27.548;2024-03-29T10:14:58;2.63;;;0.60;;
48805;SDS011;34625;47.176;27.548;2024-03-29T10:17:34;0.43;;;0.43;;
48805;SDS011;34625;47.176;27.548;2024-03-29T10:20:03;0.50;;;0.50;;
48805;SDS011;34625;47.176;27.548;2024-03-29T10:22:35;1.20;;;0.45;;
48805;SDS011;34625;47.176;27.548;2024-03-29T10:25:02;0.90;;;0.57;;
48805;SDS011;34625;47.176;27.548;2024-03-29T10:27:29;0.60;;;0.60;;
48805;SDS011;34625;47.176;27.548;2024-03-29T10:29:56;0.60;;;0.60;;
48805;SDS011;34625;47.176;27.548;2024-03-29T10:32:22;0.80;;;0.50;;
48805;SDS011;34625;47.176;27.548;2024-03-29T10:34:49;0.50;;;0.50;;
48805;SDS011;34625;47.176;27.548;2024-03-29T10:37:15;0.63;;;0.60;;
48805;SDS011;34625;47.176;27.548;2024-03-29T10:39:44;1.08;;;0.57;;
48805;SDS011;34625;47.176;27.548;2024-03-29T10:42:11;0.43;;;0.43;;
48805;SDS011;34625;47.176;27.548;2024-03-29T10:44:40;0.93;;;0.70;;
48805;SDS011;34625;47.176;27.548;2024-03-29T10:47:08;2.92;;;0.85;;
48805;SDS011;34625;47.176;27.548;2024-03-29T10:49:35;0.63;;;0.40;;
48805;SDS011;34625;47.176;27.548;2024-03-29T10:52:02;2.08;;;0.75;;
48805;SDS011;34625;47.176;27.548;2024-03-29T10:54:30;2.85;;;0.95;;
48805;SDS011;34625;47.176;27.548;2024-03-29T10:56:59;20.33;;;4.45;;
48805;SDS011;34625;47.176;27.548;2024-03-29T10:59:41;3.95;;;1.20;;
48805;SDS011;34625;47.176;27.548;2024-03-29T11:02:21;4.63;;;1.10;;
48805;SDS011;34625;47.176;27.548;2024-03-29T11:04:51;2.70;;;1.23;;
48805;SDS011;34625;47.176;27.548;2024-03-29T11:07:19;4.15;;;0.98;;
48805;SDS011;34625;47.176;27.548;2024-03-29T11:09:56;10.18;;;0.93;;
48805;SDS011;34625;47.176;27.548;2024-03-29T11:12:26;2.22;;;0.95;;
48805;SDS011;34625;47.176;27.548;2024-03-29T11:14:57;1.65;;;0.55;;
48805;SDS011;34625;47.176;27.548;2024-03-29T11:17:24;1.67;;;0.95;;
48805;SDS011;34625;47.176;27.548;2024-03-29T11:19:51;4.50;;;0.75;;
48805;SDS011;34625;47.176;27.548;2024-03-29T11:22:17;5.35;;;1.10;;
48805;SDS011;34625;47.176;27.548;2024-03-29T11:24:44;0.65;;;0.50;;
48805;SDS011;34625;47.176;27.548;2024-03-29T11:27:10;1.00;;;0.70;;
48805;SDS011;34625;47.176;27.548;2024-03-29T11:29:37;1.00;;;0.70;;
48805;SDS011;34625;47.176;27.548;2024-03-29T11:32:08;2.45;;;0.70;;
48805;SDS011;34625;47.176;27.548;2024-03-29T11:34:42;4.47;;;0.77;;
48805;SDS011;34625;47.176;27.548;2024-03-29T11:37:09;2.25;;;0.80;;
48805;SDS011;34625;47.176;27.548;2024-03-29T11:39:37;2.28;;;0.60;;
48805;SDS011;34625;47.176;27.548;2024-03-29T11:42:03;0.47;;;0.47;;
48805;SDS011;34625;47.176;27.548;2024-03-29T11:44:30;1.17;;;0.70;;
48805;SDS011;34625;47.176;27.548;2024-03-29T11:46:57;3.50;;;0.90;;
48805;SDS011;34625;47.176;27.548;2024-03-29T11:49:25;4.45;;;1.15;;
48805;SDS011;34625;47.176;27.548;2024-03-29T11:52:01;3.03;;;1.25;;
48805;SDS011;34625;47.176;27.548;2024-03-29T11:54:29;1.80;;;0.90;;
48805;SDS011;34625;47.176;27.548;2024-03-29T11:56:55;3.15;;;0.85;;
48805;SDS011;34625;47.176;27.548;2024-03-29T11:59:21;1.00;;;1.00;;
48805;SDS011;34625;47.176;27.548;2024-03-29T12:01:48;1.20;;;0.65;;
48805;SDS011;34625;47.176;27.548;2024-03-29T12:04:20;4.50;;;0.50;;
48805;SDS011;34625;47.176;27.548;2024-03-29T12:06:47;0.50;;;0.50;;
48805;SDS011;34625;47.176;27.548;2024-03-29T12:09:14;0.77;;;0.63;;
48805;SDS011;34625;47.176;27.548;2024-03-29T12:11:42;2.50;;;0.50;;
48805;SDS011;34625;47.176;27.548;2024-03-29T12:14:13;0.50;;;0.50;;
48805;SDS011;34625;47.176;27.548;2024-03-29T12:16:45;0.43;;;0.43;;
48805;SDS011;34625;47.176;27.548;2024-03-29T12:19:23;0.75;;;0.50;;
48805;SDS011;34625;47.176;27.548;2024-03-29T12:21:50;1.45;;;0.63;;
48805;SDS011;34625;47.176;27.548;2024-03-29T12:24:17;0.90;;;0.77;;
48805;SDS011;34625;47.176;27.548;2024-03-29T12:26:43;3.53;;;0.80;;
48805;SDS011;34625;47.176;27.548;2024-03-29T12:29:10;7.68;;;1.17;;
48805;SDS011;34625;47.176;27.548;2024-03-29T12:31:36;0.68;;;0.60;;
48805;SDS011;34625;47.176;27.548;2024-03-29T12:34:04;1.90;;;0.82;;
48805;SDS011;34625;47.176;27.548;2024-03-29T12:36:33;1.10;;;0.82;;
48805;SDS011;34625;47.176;27.548;2024-03-29T12:38:59;2.78;;;0.60;;
48805;SDS011;34625;47.176;27.548;2024-03-29T12:41:31;0.50;;;0.50;;
48805;SDS011;34625;47.176;27.548;2024-03-29T12:44:00;3.07;;;0.60;;
48805;SDS011;34625;47.176;27.548;2024-03-29T12:46:27;0.60;;;0.60;;
48805;SDS011;34625;47.176;27.548;2024-03-29T12:48:58;2.88;;;0.50;;
48805;SDS011;34625;47.176;27.548;2024-03-29T12:51:24;1.10;;;1.00;;
48805;SDS011;34625;47.176;27.548;2024-03-29T12:53:51;2.50;;;0.68;;
48805;SDS011;34625;47.176;27.548;2024-03-29T12:56:17;1.45;;;0.60;;
48805;SDS011;34625;47.176;27.548;2024-03-29T12:58:44;0.63;;;0.35;;
48805;SDS011;34625;47.176;27.548;2024-03-29T13:01:11;0.60;;;0.50;;
48805;SDS011;34625;47.176;27.548;2024-03-29T13:03:38;1.08;;;0.68;;
48805;SDS011;34625;47.176;27.548;2024-03-29T13:06:06;1.15;;;0.45;;
48805;SDS011;34625;47.176;27.548;2024-03-29T13:08:32;0.30;;;0.30;;
48805;SDS011;34625;47.176;27.548;2024-03-29T13:11:00;0.98;;;0.55;;
48805;SDS011;34625;47.176;27.548;2024-03-29T13:13:27;1.25;;;0.50;;
48805;SDS011;34625;47.176;27.548;2024-03-29T13:15:54;0.40;;;0.40;;
48805;SDS011;34625;47.176;27.548;2024-03-29T13:18:20;0.45;;;0.43;;
48805;SDS011;34625;47.176;27.548;2024-03-29T13:20:47;1.15;;;0.75;;
48805;SDS011;34625;47.176;27.548;2024-03-29T13:23:13;2.00;;;0.82;;
48805;SDS011;34625;47.176;27.548;2024-03-29T13:25:41;1.35;;;0.50;;
48805;SDS011;34625;47.176;27.548;2024-03-29T13:28:08;0.50;;;0.50;;
48805;SDS011;34625;47.176;27.548;2024-03-29T13:30:35;0.50;;;0.50;;
48805;SDS011;34625;47.176;27.548;2024-03-29T13:35:38;0.32;;;0.32;;
48805;SDS011;34625;47.176;27.548;2024-03-29T13:38:04;0.50;;;0.50;;
48805;SDS011;34625;47.176;27.548;2024-03-29T13:40:31;0.82;;;0.43;;
48805;SDS011;34625;47.176;27.548;2024-03-29T13:42:57;1.42;;;0.55;;
48805;SDS011;34625;47.176;27.548;2024-03-29T13:45:24;0.68;;;0.35;;
48805;SDS011;34625;47.176;27.548;2024-03-29T13:47:54;2.65;;;0.40;;
48805;SDS011;34625;47.176;27.548;2024-03-29T13:50:21;1.13;;;0.52;;
48805;SDS011;34625;47.176;27.548;2024-03-29T13:52:47;0.50;;;0.30;;
48805;SDS011;34625;47.176;27.548;2024-03-29T13:55:14;0.35;;;0.35;;
48805;SDS011;34625;47.176;27.548;2024-03-29T13:57:40;0.50;;;0.50;;
48805;SDS011;34625;47.176;27.548;2024-03-29T14:00:09;0.77;;;0.77;;
48805;SDS011;34625;47.176;27.548;2024-03-29T14:02:38;0.70;;;0.40;;
48805;SDS011;34625;47.176;27.548;2024-03-29T14:05:05;1.10;;;0.50;;
48805;SDS011;34625;47.176;27.548;2024-03-29T14:07:31;1.85;;;0.45;;
48805;SDS011;34625;47.176;27.548;2024-03-29T14:09:58;0.50;;;0.50;;
48805;SDS011;34625;47.176;27.548;2024-03-29T14:12:25;0.50;;;0.50;;
48805;SDS011;34625;47.176;27.548;2024-03-29T14:14:52;0.40;;;0.40;;
48805;SDS011;34625;47.176;27.548;2024-03-29T14:17:22;1.88;;;1.40;;
48805;SDS011;34625;47.176;27.548;2024-03-29T14:19:48;0.60;;;0.50;;
48805;SDS011;34625;47.176;27.548;2024-03-29T14:22:15;2.47;;;0.60;;
48805;SDS011;34625;47.176;27.548;2024-03-29T14:24:43;0.40;;;0.40;;
48805;SDS011;34625;47.176;27.548;2024-03-29T14:27:10;0.75;;;0.50;;
48805;SDS011;34625;47.176;27.548;2024-03-29T14:29:38;0.47;;;0.47;;
48805;SDS011;34625;47.176;27.548;2024-03-29T14:32:05;0.52;;;0.50;;
48805;SDS011;34625;47.176;27.548;2024-03-29T14:34:31;0.60;;;0.57;;
48805;SDS011;34625;47.176;27.548;2024-03-29T14:37:03;0.50;;;0.50;;